sensor_id;sensor_type;location;lat;lon;timestamp;temperature;humidity
14924;DHT22;7554;43.600;1.480;2023-05-17T00:01:15;12.30;1.00
14924;DHT22;7554;43.600;1.480;2023-05-17T00:03:42;12.30;1.00
14924;DHT22;7554;43.600;1.480;2023-05-17T00:06:09;12.20;1.00
14924;DHT22;7554;43.600;1.480;2023-05-17T00:08:37;12.20;1.00
14924;DHT22;7554;43.600;1.480;2023-05-17T00:11:06;12.20;1.00
14924;DHT22;7554;43.600;1.480;2023-05-17T00:13:33;12.20;1.00
14924;DHT22;7554;43.600;1.480;2023-05-17T00:16:00;12.20;1.00
14924;DHT22;7554;43.600;1.480;2023-05-17T00:18:27;12.20;1.00
14924;DHT22;7554;43.600;1.480;2023-05-17T00:20:55;12.20;1.00
14924;DHT22;7554;43.600;1.480;2023-05-17T00:23:22;12.20;1.00
14924;DHT22;7554;43.600;1.480;2023-05-17T00:25:49;12.10;1.00
14924;DHT22;7554;43.600;1.480;2023-05-17T00:28:18;12.10;1.00
14924;DHT22;7554;43.600;1.480;2023-05-17T00:30:45;12.10;1.00
14924;DHT22;7554;43.600;1.480;2023-05-17T00:33:13;12.00;1.00
14924;DHT22;7554;43.600;1.480;2023-05-17T00:35:40;12.00;1.00
14924;DHT22;7554;43.600;1.480;2023-05-17T00:38:07;12.00;1.00
14924;DHT22;7554;43.600;1.480;2023-05-17T00:40:35;11.90;1.00
14924;DHT22;7554;43.600;1.480;2023-05-17T00:43:02;11.90;1.00
14924;DHT22;7554;43.600;1.480;2023-05-17T00:45:31;11.80;1.00
14924;DHT22;7554;43.600;1.480;2023-05-17T00:47:58;11.80;1.00
14924;DHT22;7554;43.600;1.480;2023-05-17T00:50:25;11.70;1.00
14924;DHT22;7554;43.600;1.480;2023-05-17T00:52:53;11.70;1.00
14924;DHT22;7554;43.600;1.480;2023-05-17T00:55:21;11.70;1.00
14924;DHT22;7554;43.600;1.480;2023-05-17T00:57:48;11.60;1.00
14924;DHT22;7554;43.600;1.480;2023-05-17T01:00:16;11.60;1.00
14924;DHT22;7554;43.600;1.480;2023-05-17T01:02:45;11.60;1.00
14924;DHT22;7554;43.600;1.480;2023-05-17T01:05:13;11.60;1.00
14924;DHT22;7554;43.600;1.480;2023-05-17T01:07:40;11.50;1.00
14924;DHT22;7554;43.600;1.480;2023-05-17T01:10:08;11.50;1.00
14924;DHT22;7554;43.600;1.480;2023-05-17T01:12:49;11.50;1.00
14924;DHT22;7554;43.600;1.480;2023-05-17T01:15:25;11.40;1.00
14924;DHT22;7554;43.600;1.480;2023-05-17T01:17:59;11.40;1.00
14924;DHT22;7554;43.600;1.480;2023-05-17T01:20:35;11.30;1.00
14924;DHT22;7554;43.600;1.480;2023-05-17T01:23:12;11.30;1.00
14924;DHT22;7554;43.600;1.480;2023-05-17T01:25:53;11.30;1.00
14924;DHT22;7554;43.600;1.480;2023-05-17T01:28:23;11.20;1.00
14924;DHT22;7554;43.600;1.480;2023-05-17T01:30:54;11.20;1.00
14924;DHT22;7554;43.600;1.480;2023-05-17T01:33:23;11.20;1.00
14924;DHT22;7554;43.600;1.480;2023-05-17T01:35:51;11.20;1.00
14924;DHT22;7554;43.600;1.480;2023-05-17T01:38:18;11.10;1.00
14924;DHT22;7554;43.600;1.480;2023-05-17T01:40:51;11.10;1.00
14924;DHT22;7554;43.600;1.480;2023-05-17T01:43:28;11.00;1.00
14924;DHT22;7554;43.600;1.480;2023-05-17T01:46:06;11.00;1.00
14924;DHT22;7554;43.600;1.480;2023-05-17T01:48:37;11.00;1.00
14924;DHT22;7554;43.600;1.480;2023-05-17T01:51:08;10.90;1.00
14924;DHT22;7554;43.600;1.480;2023-05-17T01:53:38;10.90;1.00
14924;DHT22;7554;43.600;1.480;2023-05-17T01:56:09;10.80;1.00
14924;DHT22;7554;43.600;1.480;2023-05-17T01:58:44;10.80;1.00
14924;DHT22;7554;43.600;1.480;2023-05-17T02:01:14;10.70;1.00
14924;DHT22;7554;43.600;1.480;2023-05-17T02:03:42;10.70;1.00
14924;DHT22;7554;43.600;1.480;2023-05-17T02:06:10;10.70;1.00
14924;DHT22;7554;43.600;1.480;2023-05-17T02:08:37;10.70;1.00
14924;DHT22;7554;43.600;1.480;2023-05-17T02:11:05;10.60;1.00
14924;DHT22;7554;43.600;1.480;2023-05-17T02:13:32;10.60;1.00
14924;DHT22;7554;43.600;1.480;2023-05-17T02:16:01;10.60;1.00
14924;DHT22;7554;43.600;1.480;2023-05-17T02:18:29;10.50;1.00
14924;DHT22;7554;43.600;1.480;2023-05-17T02:20:57;10.50;1.00
14924;DHT22;7554;43.600;1.480;2023-05-17T02:23:24;10.50;1.00
14924;DHT22;7554;43.600;1.480;2023-05-17T02:25:51;10.40;1.00
14924;DHT22;7554;43.600;1.480;2023-05-17T02:28:19;10.40;1.00
14924;DHT22;7554;43.600;1.480;2023-05-17T02:30:46;10.40;1.00
14924;DHT22;7554;43.600;1.480;2023-05-17T02:33:15;10.40;1.00
14924;DHT22;7554;43.600;1.480;2023-05-17T02:35:42;10.30;1.00
14924;DHT22;7554;43.600;1.480;2023-05-17T02:38:09;10.30;1.00
14924;DHT22;7554;43.600;1.480;2023-05-17T02:40:40;10.30;1.00
14924;DHT22;7554;43.600;1.480;2023-05-17T02:43:07;10.30;1.00
14924;DHT22;7554;43.600;1.480;2023-05-17T02:45:34;10.20;1.00
14924;DHT22;7554;43.600;1.480;2023-05-17T02:48:02;10.20;1.00
14924;DHT22;7554;43.600;1.480;2023-05-17T02:50:30;10.20;1.00
14924;DHT22;7554;43.600;1.480;2023-05-17T02:52:58;10.10;1.00
14924;DHT22;7554;43.600;1.480;2023-05-17T02:55:25;10.10;1.00
14924;DHT22;7554;43.600;1.480;2023-05-17T02:57:53;10.10;1.00
14924;DHT22;7554;43.600;1.480;2023-05-17T03:00:20;10.10;1.00
14924;DHT22;7554;43.600;1.480;2023-05-17T03:02:47;10.00;1.00
14924;DHT22;7554;43.600;1.480;2023-05-17T03:05:15;10.00;1.00
14924;DHT22;7554;43.600;1.480;2023-05-17T03:07:44;10.00;1.00
14924;DHT22;7554;43.600;1.480;2023-05-17T03:10:11;10.00;1.00
14924;DHT22;7554;43.600;1.480;2023-05-17T03:12:38;10.00;1.00
14924;DHT22;7554;43.600;1.480;2023-05-17T03:15:06;9.90;1.00
14924;DHT22;7554;43.600;1.480;2023-05-17T03:17:34;10.00;1.00
14924;DHT22;7554;43.600;1.480;2023-05-17T03:20:01;9.90;1.00
14924;DHT22;7554;43.600;1.480;2023-05-17T03:22:29;9.90;1.00
14924;DHT22;7554;43.600;1.480;2023-05-17T03:24:57;9.90;1.00
14924;DHT22;7554;43.600;1.480;2023-05-17T03:27:25;9.80;1.00
14924;DHT22;7554;43.600;1.480;2023-05-17T03:29:52;9.80;1.00
14924;DHT22;7554;43.600;1.480;2023-05-17T03:32:19;9.80;1.00
14924;DHT22;7554;43.600;1.480;2023-05-17T03:34:46;9.80;1.00
14924;DHT22;7554;43.600;1.480;2023-05-17T03:37:14;9.80;1.00
14924;DHT22;7554;43.600;1.480;2023-05-17T03:39:41;9.70;1.00
14924;DHT22;7554;43.600;1.480;2023-05-17T03:42:10;9.70;1.00
14924;DHT22;7554;43.600;1.480;2023-05-17T03:44:39;9.70;1.00
14924;DHT22;7554;43.600;1.480;2023-05-17T03:47:06;9.70;1.00
14924;DHT22;7554;43.600;1.480;2023-05-17T03:49:33;9.70;1.00
14924;DHT22;7554;43.600;1.480;2023-05-17T03:52:01;9.70;1.00
14924;DHT22;7554;43.600;1.480;2023-05-17T03:54:28;9.70;1.00
14924;DHT22;7554;43.600;1.480;2023-05-17T03:56:55;9.70;1.00
14924;DHT22;7554;43.600;1.480;2023-05-17T03:59:24;9.60;1.00
14924;DHT22;7554;43.600;1.480;2023-05-17T04:01:51;9.60;1.00
14924;DHT22;7554;43.600;1.480;2023-05-17T04:04:19;9.60;1.00
14924;DHT22;7554;43.600;1.480;2023-05-17T04:06:46;9.60;1.00
14924;DHT22;7554;43.600;1.480;2023-05-17T04:09:13;9.60;1.00
14924;DHT22;7554;43.600;1.480;2023-05-17T04:11:41;9.60;1.00
14924;DHT22;7554;43.600;1.480;2023-05-17T04:14:08;9.60;1.00
14924;DHT22;7554;43.600;1.480;2023-05-17T04:16:37;9.60;1.00
14924;DHT22;7554;43.600;1.480;2023-05-17T04:19:04;9.60;1.00
14924;DHT22;7554;43.600;1.480;2023-05-17T04:21:31;9.50;1.00
14924;DHT22;7554;43.600;1.480;2023-05-17T04:23:59;9.60;1.00
14924;DHT22;7554;43.600;1.480;2023-05-17T04:26:26;9.50;1.00
14924;DHT22;7554;43.600;1.480;2023-05-17T04:28:53;9.50;1.00
14924;DHT22;7554;43.600;1.480;2023-05-17T04:31:21;9.50;1.00
14924;DHT22;7554;43.600;1.480;2023-05-17T04:33:49;9.50;1.00
14924;DHT22;7554;43.600;1.480;2023-05-17T04:36:17;9.60;1.00
14924;DHT22;7554;43.600;1.480;2023-05-17T04:38:44;9.70;1.00
14924;DHT22;7554;43.600;1.480;2023-05-17T04:41:12;9.90;1.00
14924;DHT22;7554;43.600;1.480;2023-05-17T04:43:39;10.10;1.00
14924;DHT22;7554;43.600;1.480;2023-05-17T04:46:07;10.20;1.00
14924;DHT22;7554;43.600;1.480;2023-05-17T04:48:34;10.40;1.00
14924;DHT22;7554;43.600;1.480;2023-05-17T04:51:03;10.70;1.00
14924;DHT22;7554;43.600;1.480;2023-05-17T04:53:31;11.10;1.00
14924;DHT22;7554;43.600;1.480;2023-05-17T04:55:58;11.40;1.00
14924;DHT22;7554;43.600;1.480;2023-05-17T04:58:26;11.80;1.00
14924;DHT22;7554;43.600;1.480;2023-05-17T05:00:53;12.00;1.00
14924;DHT22;7554;43.600;1.480;2023-05-17T05:03:21;12.20;1.00
14924;DHT22;7554;43.600;1.480;2023-05-17T05:05:49;12.60;1.00
14924;DHT22;7554;43.600;1.480;2023-05-17T05:08:18;12.70;1.00
14924;DHT22;7554;43.600;1.480;2023-05-17T05:10:45;13.00;1.00
14924;DHT22;7554;43.600;1.480;2023-05-17T05:13:13;13.30;1.00
14924;DHT22;7554;43.600;1.480;2023-05-17T05:15:40;13.80;1.00
14924;DHT22;7554;43.600;1.480;2023-05-17T05:18:07;14.20;1.00
14924;DHT22;7554;43.600;1.480;2023-05-17T05:20:35;14.40;1.00
14924;DHT22;7554;43.600;1.480;2023-05-17T05:23:02;14.70;1.00
14924;DHT22;7554;43.600;1.480;2023-05-17T05:25:32;14.70;1.00
14924;DHT22;7554;43.600;1.480;2023-05-17T05:27:59;15.00;1.00
14924;DHT22;7554;43.600;1.480;2023-05-17T05:30:26;15.40;1.00
14924;DHT22;7554;43.600;1.480;2023-05-17T05:32:53;15.70;1.00
14924;DHT22;7554;43.600;1.480;2023-05-17T05:35:21;16.00;1.00
14924;DHT22;7554;43.600;1.480;2023-05-17T05:37:54;16.50;1.00
14924;DHT22;7554;43.600;1.480;2023-05-17T05:40:21;17.00;1.00
14924;DHT22;7554;43.600;1.480;2023-05-17T05:42:50;17.40;1.00
14924;DHT22;7554;43.600;1.480;2023-05-17T05:45:18;18.10;1.00
14924;DHT22;7554;43.600;1.480;2023-05-17T05:47:46;18.40;1.00
14924;DHT22;7554;43.600;1.480;2023-05-17T05:50:13;18.80;1.00
14924;DHT22;7554;43.600;1.480;2023-05-17T05:52:41;19.20;1.00
14924;DHT22;7554;43.600;1.480;2023-05-17T05:55:09;19.80;1.00
14924;DHT22;7554;43.600;1.480;2023-05-17T05:57:36;20.00;1.00
14924;DHT22;7554;43.600;1.480;2023-05-17T06:00:06;20.00;1.00
14924;DHT22;7554;43.600;1.480;2023-05-17T06:02:34;20.70;1.00
14924;DHT22;7554;43.600;1.480;2023-05-17T06:05:02;20.80;1.00
14924;DHT22;7554;43.600;1.480;2023-05-17T06:07:29;21.80;1.00
14924;DHT22;7554;43.600;1.480;2023-05-17T06:09:57;22.00;1.00
14924;DHT22;7554;43.600;1.480;2023-05-17T06:12:24;22.70;1.00
14924;DHT22;7554;43.600;1.480;2023-05-17T06:14:51;23.00;1.00
14924;DHT22;7554;43.600;1.480;2023-05-17T06:17:20;23.20;1.00
14924;DHT22;7554;43.600;1.480;2023-05-17T06:19:47;24.10;1.00
14924;DHT22;7554;43.600;1.480;2023-05-17T06:22:15;24.20;1.00
14924;DHT22;7554;43.600;1.480;2023-05-17T06:24:42;24.50;1.00
14924;DHT22;7554;43.600;1.480;2023-05-17T06:27:09;25.30;1.00
14924;DHT22;7554;43.600;1.480;2023-05-17T06:29:37;25.90;1.00
14924;DHT22;7554;43.600;1.480;2023-05-17T06:32:05;25.80;1.00
14924;DHT22;7554;43.600;1.480;2023-05-17T06:34:34;26.30;1.00
14924;DHT22;7554;43.600;1.480;2023-05-17T06:37:01;25.70;1.00
14924;DHT22;7554;43.600;1.480;2023-05-17T06:39:29;26.00;1.00
14924;DHT22;7554;43.600;1.480;2023-05-17T06:41:57;26.10;1.00
14924;DHT22;7554;43.600;1.480;2023-05-17T06:44:24;26.90;1.00
14924;DHT22;7554;43.600;1.480;2023-05-17T06:46:51;27.00;1.00
14924;DHT22;7554;43.600;1.480;2023-05-17T06:49:18;27.30;1.00
14924;DHT22;7554;43.600;1.480;2023-05-17T06:51:47;28.30;1.00
14924;DHT22;7554;43.600;1.480;2023-05-17T06:54:14;28.40;1.00
14924;DHT22;7554;43.600;1.480;2023-05-17T06:56:44;28.70;1.00
14924;DHT22;7554;43.600;1.480;2023-05-17T06:59:13;29.50;1.00
14924;DHT22;7554;43.600;1.480;2023-05-17T07:01:40;29.90;1.00
14924;DHT22;7554;43.600;1.480;2023-05-17T07:04:07;29.60;1.00
14924;DHT22;7554;43.600;1.480;2023-05-17T07:06:34;28.60;1.00
14924;DHT22;7554;43.600;1.480;2023-05-17T07:09:03;28.70;1.00
14924;DHT22;7554;43.600;1.480;2023-05-17T07:11:31;29.50;1.00
14924;DHT22;7554;43.600;1.480;2023-05-17T07:13:59;30.10;1.00
14924;DHT22;7554;43.600;1.480;2023-05-17T07:16:26;30.10;1.00
14924;DHT22;7554;43.600;1.480;2023-05-17T07:18:53;29.90;1.00
14924;DHT22;7554;43.600;1.480;2023-05-17T07:21:21;30.50;1.00
14924;DHT22;7554;43.600;1.480;2023-05-17T07:23:48;31.10;1.00
14924;DHT22;7554;43.600;1.480;2023-05-17T07:26:18;30.90;1.00
14924;DHT22;7554;43.600;1.480;2023-05-17T07:28:46;31.40;1.00
14924;DHT22;7554;43.600;1.480;2023-05-17T07:31:13;31.20;1.00
14924;DHT22;7554;43.600;1.480;2023-05-17T07:33:41;31.10;1.00
14924;DHT22;7554;43.600;1.480;2023-05-17T07:36:08;31.20;1.00
14924;DHT22;7554;43.600;1.480;2023-05-17T07:38:36;31.50;1.00
14924;DHT22;7554;43.600;1.480;2023-05-17T07:41:03;32.20;1.00
14924;DHT22;7554;43.600;1.480;2023-05-17T07:43:35;31.90;1.00
14924;DHT22;7554;43.600;1.480;2023-05-17T07:46:03;31.80;1.00
14924;DHT22;7554;43.600;1.480;2023-05-17T07:48:31;32.40;1.00
14924;DHT22;7554;43.600;1.480;2023-05-17T07:50:58;32.00;1.00
14924;DHT22;7554;43.600;1.480;2023-05-17T07:53:25;31.90;1.00
14924;DHT22;7554;43.600;1.480;2023-05-17T07:55:53;32.30;1.00
14924;DHT22;7554;43.600;1.480;2023-05-17T07:58:20;31.80;1.00
14924;DHT22;7554;43.600;1.480;2023-05-17T08:00:48;31.30;1.00
14924;DHT22;7554;43.600;1.480;2023-05-17T08:03:16;32.10;1.00
14924;DHT22;7554;43.600;1.480;2023-05-17T08:05:43;32.00;1.00
14924;DHT22;7554;43.600;1.480;2023-05-17T08:08:10;31.90;1.00
14924;DHT22;7554;43.600;1.480;2023-05-17T08:10:38;32.90;1.00
14924;DHT22;7554;43.600;1.480;2023-05-17T08:13:05;33.60;1.00
14924;DHT22;7554;43.600;1.480;2023-05-17T08:15:33;33.00;1.00
14924;DHT22;7554;43.600;1.480;2023-05-17T08:18:02;33.20;1.00
14924;DHT22;7554;43.600;1.480;2023-05-17T08:20:29;33.10;1.00
14924;DHT22;7554;43.600;1.480;2023-05-17T08:22:57;32.30;1.00
14924;DHT22;7554;43.600;1.480;2023-05-17T08:25:24;33.00;1.00
14924;DHT22;7554;43.600;1.480;2023-05-17T08:27:51;34.10;1.00
14924;DHT22;7554;43.600;1.480;2023-05-17T08:30:19;33.30;1.00
14924;DHT22;7554;43.600;1.480;2023-05-17T08:32:47;33.70;1.00
14924;DHT22;7554;43.600;1.480;2023-05-17T08:35:16;33.80;1.00
14924;DHT22;7554;43.600;1.480;2023-05-17T08:37:43;33.90;1.00
14924;DHT22;7554;43.600;1.480;2023-05-17T08:40:11;34.40;1.00
14924;DHT22;7554;43.600;1.480;2023-05-17T08:42:40;34.30;1.00
14924;DHT22;7554;43.600;1.480;2023-05-17T08:45:08;33.00;1.00
14924;DHT22;7554;43.600;1.480;2023-05-17T08:47:37;32.00;1.00
14924;DHT22;7554;43.600;1.480;2023-05-17T08:50:05;33.00;1.00
14924;DHT22;7554;43.600;1.480;2023-05-17T08:52:35;34.30;1.00
14924;DHT22;7554;43.600;1.480;2023-05-17T08:55:04;34.30;1.00
14924;DHT22;7554;43.600;1.480;2023-05-17T08:57:33;34.90;1.00
14924;DHT22;7554;43.600;1.480;2023-05-17T09:00:03;34.60;1.00
14924;DHT22;7554;43.600;1.480;2023-05-17T09:02:31;34.40;1.00
14924;DHT22;7554;43.600;1.480;2023-05-17T09:04:59;34.90;1.00
14924;DHT22;7554;43.600;1.480;2023-05-17T09:07:26;35.20;1.00
14924;DHT22;7554;43.600;1.480;2023-05-17T09:09:55;35.90;1.00
14924;DHT22;7554;43.600;1.480;2023-05-17T09:12:23;34.00;1.00
14924;DHT22;7554;43.600;1.480;2023-05-17T09:14:50;34.30;1.00
14924;DHT22;7554;43.600;1.480;2023-05-17T09:17:18;34.00;1.00
14924;DHT22;7554;43.600;1.480;2023-05-17T09:19:47;33.70;1.00
14924;DHT22;7554;43.600;1.480;2023-05-17T09:22:17;34.10;1.00
14924;DHT22;7554;43.600;1.480;2023-05-17T09:24:44;33.20;1.00
14924;DHT22;7554;43.600;1.480;2023-05-17T09:27:17;34.00;1.00
14924;DHT22;7554;43.600;1.480;2023-05-17T09:29:45;34.90;1.00
14924;DHT22;7554;43.600;1.480;2023-05-17T09:32:13;33.20;1.00
14924;DHT22;7554;43.600;1.480;2023-05-17T09:34:42;33.70;1.00
14924;DHT22;7554;43.600;1.480;2023-05-17T09:37:14;34.50;1.00
14924;DHT22;7554;43.600;1.480;2023-05-17T09:39:42;33.50;1.00
14924;DHT22;7554;43.600;1.480;2023-05-17T09:42:10;31.60;1.00
14924;DHT22;7554;43.600;1.480;2023-05-17T09:44:49;31.30;1.00
14924;DHT22;7554;43.600;1.480;2023-05-17T09:47:25;27.20;1.00
14924;DHT22;7554;43.600;1.480;2023-05-17T09:49:55;25.70;1.00
14924;DHT22;7554;43.600;1.480;2023-05-17T09:52:23;24.80;1.00
14924;DHT22;7554;43.600;1.480;2023-05-17T09:54:52;23.80;1.00
14924;DHT22;7554;43.600;1.480;2023-05-17T09:57:20;23.40;1.00
14924;DHT22;7554;43.600;1.480;2023-05-17T09:59:49;23.10;1.00
14924;DHT22;7554;43.600;1.480;2023-05-17T10:02:20;23.20;1.00
14924;DHT22;7554;43.600;1.480;2023-05-17T10:04:49;23.00;1.00
14924;DHT22;7554;43.600;1.480;2023-05-17T10:07:20;22.30;1.00
14924;DHT22;7554;43.600;1.480;2023-05-17T10:09:51;22.40;1.00
14924;DHT22;7554;43.600;1.480;2023-05-17T10:12:21;21.60;1.00
14924;DHT22;7554;43.600;1.480;2023-05-17T10:14:51;21.70;1.00
14924;DHT22;7554;43.600;1.480;2023-05-17T10:17:20;21.90;1.00
14924;DHT22;7554;43.600;1.480;2023-05-17T10:19:48;21.30;1.00
14924;DHT22;7554;43.600;1.480;2023-05-17T10:22:16;21.30;1.00
14924;DHT22;7554;43.600;1.480;2023-05-17T10:24:44;21.10;1.00
14924;DHT22;7554;43.600;1.480;2023-05-17T10:27:12;21.20;1.00
14924;DHT22;7554;43.600;1.480;2023-05-17T10:29:41;21.10;1.00
14924;DHT22;7554;43.600;1.480;2023-05-17T10:32:12;21.10;1.00
14924;DHT22;7554;43.600;1.480;2023-05-17T10:34:42;20.80;1.00
14924;DHT22;7554;43.600;1.480;2023-05-17T10:37:10;20.80;1.00
14924;DHT22;7554;43.600;1.480;2023-05-17T10:39:38;20.90;1.00
14924;DHT22;7554;43.600;1.480;2023-05-17T10:42:06;21.00;1.00
14924;DHT22;7554;43.600;1.480;2023-05-17T10:44:34;21.20;1.00
14924;DHT22;7554;43.600;1.480;2023-05-17T10:47:03;21.20;1.00
14924;DHT22;7554;43.600;1.480;2023-05-17T10:49:32;21.10;1.00
14924;DHT22;7554;43.600;1.480;2023-05-17T10:52:11;20.90;1.00
14924;DHT22;7554;43.600;1.480;2023-05-17T10:54:40;20.70;1.00
14924;DHT22;7554;43.600;1.480;2023-05-17T10:57:08;20.60;1.00
14924;DHT22;7554;43.600;1.480;2023-05-17T10:59:55;20.90;1.00
14924;DHT22;7554;43.600;1.480;2023-05-17T11:02:25;20.70;1.00
14924;DHT22;7554;43.600;1.480;2023-05-17T11:04:54;20.80;1.00
14924;DHT22;7554;43.600;1.480;2023-05-17T11:07:27;20.90;1.00
14924;DHT22;7554;43.600;1.480;2023-05-17T11:10:04;20.90;1.00
14924;DHT22;7554;43.600;1.480;2023-05-17T11:12:33;20.50;1.00
14924;DHT22;7554;43.600;1.480;2023-05-17T11:15:05;20.40;1.00
14924;DHT22;7554;43.600;1.480;2023-05-17T11:17:46;20.30;1.00
14924;DHT22;7554;43.600;1.480;2023-05-17T11:20:32;20.40;1.00
14924;DHT22;7554;43.600;1.480;2023-05-17T11:23:02;20.60;1.00
14924;DHT22;7554;43.600;1.480;2023-05-17T11:25:30;21.30;1.00
14924;DHT22;7554;43.600;1.480;2023-05-17T11:28:05;21.60;1.00
14924;DHT22;7554;43.600;1.480;2023-05-17T11:30:33;21.50;1.00
14924;DHT22;7554;43.600;1.480;2023-05-17T11:33:01;21.20;1.00
14924;DHT22;7554;43.600;1.480;2023-05-17T11:35:33;21.30;1.00
14924;DHT22;7554;43.600;1.480;2023-05-17T11:38:16;21.50;1.00
14924;DHT22;7554;43.600;1.480;2023-05-17T11:40:44;21.30;1.00
14924;DHT22;7554;43.600;1.480;2023-05-17T11:43:14;21.20;1.00
14924;DHT22;7554;43.600;1.480;2023-05-17T11:45:43;21.10;1.00
14924;DHT22;7554;43.600;1.480;2023-05-17T11:48:12;21.50;1.00
14924;DHT22;7554;43.600;1.480;2023-05-17T11:50:42;21.70;1.00
14924;DHT22;7554;43.600;1.480;2023-05-17T11:53:11;21.20;1.00
14924;DHT22;7554;43.600;1.480;2023-05-17T11:55:39;21.20;1.00
14924;DHT22;7554;43.600;1.480;2023-05-17T11:58:08;20.90;1.00
14924;DHT22;7554;43.600;1.480;2023-05-17T12:00:36;20.50;1.00
14924;DHT22;7554;43.600;1.480;2023-05-17T12:03:23;20.30;1.00
14924;DHT22;7554;43.600;1.480;2023-05-17T12:06:01;20.60;1.00
14924;DHT22;7554;43.600;1.480;2023-05-17T12:08:30;20.40;1.00
14924;DHT22;7554;43.600;1.480;2023-05-17T12:10:59;20.20;1.00
14924;DHT22;7554;43.600;1.480;2023-05-17T12:13:27;20.20;1.00
14924;DHT22;7554;43.600;1.480;2023-05-17T12:15:56;20.30;1.00
14924;DHT22;7554;43.600;1.480;2023-05-17T12:18:33;20.30;1.00
14924;DHT22;7554;43.600;1.480;2023-05-17T12:21:04;20.50;1.00
14924;DHT22;7554;43.600;1.480;2023-05-17T12:23:35;20.70;1.00
14924;DHT22;7554;43.600;1.480;2023-05-17T12:26:04;20.70;1.00
14924;DHT22;7554;43.600;1.480;2023-05-17T12:28:31;20.90;1.00
14924;DHT22;7554;43.600;1.480;2023-05-17T12:31:00;20.60;1.00
14924;DHT22;7554;43.600;1.480;2023-05-17T12:33:34;20.50;1.00
14924;DHT22;7554;43.600;1.480;2023-05-17T12:36:04;21.00;1.00
14924;DHT22;7554;43.600;1.480;2023-05-17T12:38:32;20.90;1.00
14924;DHT22;7554;43.600;1.480;2023-05-17T12:41:00;20.70;1.00
14924;DHT22;7554;43.600;1.480;2023-05-17T12:43:28;21.20;1.00
14924;DHT22;7554;43.600;1.480;2023-05-17T12:46:02;21.20;1.00
14924;DHT22;7554;43.600;1.480;2023-05-17T12:48:32;21.30;1.00
14924;DHT22;7554;43.600;1.480;2023-05-17T12:51:09;21.30;1.00
14924;DHT22;7554;43.600;1.480;2023-05-17T12:53:38;20.90;1.00
14924;DHT22;7554;43.600;1.480;2023-05-17T12:56:06;20.70;1.00
14924;DHT22;7554;43.600;1.480;2023-05-17T12:58:33;20.30;1.00
14924;DHT22;7554;43.600;1.480;2023-05-17T13:01:01;20.40;1.00
14924;DHT22;7554;43.600;1.480;2023-05-17T13:03:31;20.40;1.00
14924;DHT22;7554;43.600;1.480;2023-05-17T13:06:02;20.50;1.00
14924;DHT22;7554;43.600;1.480;2023-05-17T13:08:32;21.00;1.00
14924;DHT22;7554;43.600;1.480;2023-05-17T13:11:12;21.30;1.00
14924;DHT22;7554;43.600;1.480;2023-05-17T13:13:39;21.40;1.00
14924;DHT22;7554;43.600;1.480;2023-05-17T13:16:07;20.90;1.00
14924;DHT22;7554;43.600;1.480;2023-05-17T13:18:50;20.80;1.00
14924;DHT22;7554;43.600;1.480;2023-05-17T13:21:20;20.80;1.00
14924;DHT22;7554;43.600;1.480;2023-05-17T13:23:50;21.30;1.00
14924;DHT22;7554;43.600;1.480;2023-05-17T13:26:17;21.70;1.00
14924;DHT22;7554;43.600;1.480;2023-05-17T13:28:45;21.50;1.00
14924;DHT22;7554;43.600;1.480;2023-05-17T13:31:12;21.20;1.00
14924;DHT22;7554;43.600;1.480;2023-05-17T13:33:39;21.60;1.00
14924;DHT22;7554;43.600;1.480;2023-05-17T13:36:07;21.60;1.00
14924;DHT22;7554;43.600;1.480;2023-05-17T13:38:34;21.50;1.00
14924;DHT22;7554;43.600;1.480;2023-05-17T13:41:03;21.40;1.00
14924;DHT22;7554;43.600;1.480;2023-05-17T13:43:32;21.60;1.00
14924;DHT22;7554;43.600;1.480;2023-05-17T13:45:59;21.70;1.00
14924;DHT22;7554;43.600;1.480;2023-05-17T13:48:27;21.50;1.00
14924;DHT22;7554;43.600;1.480;2023-05-17T13:50:54;21.10;1.00
14924;DHT22;7554;43.600;1.480;2023-05-17T13:53:21;21.30;1.00
14924;DHT22;7554;43.600;1.480;2023-05-17T13:55:49;21.50;1.00
14924;DHT22;7554;43.600;1.480;2023-05-17T13:58:17;21.60;1.00
14924;DHT22;7554;43.600;1.480;2023-05-17T14:00:45;21.70;1.00
14924;DHT22;7554;43.600;1.480;2023-05-17T14:03:12;21.90;1.00
14924;DHT22;7554;43.600;1.480;2023-05-17T14:05:40;22.20;1.00
14924;DHT22;7554;43.600;1.480;2023-05-17T14:08:07;22.00;1.00
14924;DHT22;7554;43.600;1.480;2023-05-17T14:10:35;21.80;1.00
14924;DHT22;7554;43.600;1.480;2023-05-17T14:13:02;21.40;1.00
14924;DHT22;7554;43.600;1.480;2023-05-17T14:15:31;21.30;1.00
14924;DHT22;7554;43.600;1.480;2023-05-17T14:18:03;21.40;1.00
14924;DHT22;7554;43.600;1.480;2023-05-17T14:20:30;21.60;1.00
14924;DHT22;7554;43.600;1.480;2023-05-17T14:22:58;21.80;1.00
14924;DHT22;7554;43.600;1.480;2023-05-17T14:25:25;22.10;1.00
14924;DHT22;7554;43.600;1.480;2023-05-17T14:27:53;22.20;1.00
14924;DHT22;7554;43.600;1.480;2023-05-17T14:30:20;22.20;1.00
14924;DHT22;7554;43.600;1.480;2023-05-17T14:32:49;21.80;1.00
14924;DHT22;7554;43.600;1.480;2023-05-17T14:35:17;21.50;1.00
14924;DHT22;7554;43.600;1.480;2023-05-17T14:37:44;21.70;1.00
14924;DHT22;7554;43.600;1.480;2023-05-17T14:40:12;21.60;1.00
14924;DHT22;7554;43.600;1.480;2023-05-17T14:42:39;21.50;1.00
14924;DHT22;7554;43.600;1.480;2023-05-17T14:45:07;21.30;1.00
14924;DHT22;7554;43.600;1.480;2023-05-17T14:47:35;21.30;1.00
14924;DHT22;7554;43.600;1.480;2023-05-17T14:50:04;21.20;1.00
14924;DHT22;7554;43.600;1.480;2023-05-17T14:52:32;21.20;1.00
14924;DHT22;7554;43.600;1.480;2023-05-17T14:54:59;21.30;1.00
14924;DHT22;7554;43.600;1.480;2023-05-17T14:57:27;21.00;1.00
14924;DHT22;7554;43.600;1.480;2023-05-17T14:59:54;21.10;1.00
14924;DHT22;7554;43.600;1.480;2023-05-17T15:02:22;21.50;1.00
14924;DHT22;7554;43.600;1.480;2023-05-17T15:04:49;21.80;1.00
14924;DHT22;7554;43.600;1.480;2023-05-17T15:07:19;21.90;1.00
14924;DHT22;7554;43.600;1.480;2023-05-17T15:09:46;21.50;1.00
14924;DHT22;7554;43.600;1.480;2023-05-17T15:12:13;21.50;1.00
14924;DHT22;7554;43.600;1.480;2023-05-17T15:14:41;21.50;1.00
14924;DHT22;7554;43.600;1.480;2023-05-17T15:17:09;21.50;1.00
14924;DHT22;7554;43.600;1.480;2023-05-17T15:19:37;21.50;1.00
14924;DHT22;7554;43.600;1.480;2023-05-17T15:22:04;21.70;1.00
14924;DHT22;7554;43.600;1.480;2023-05-17T15:24:33;21.70;1.00
14924;DHT22;7554;43.600;1.480;2023-05-17T15:27:02;21.40;1.00
14924;DHT22;7554;43.600;1.480;2023-05-17T15:29:29;21.40;1.00
14924;DHT22;7554;43.600;1.480;2023-05-17T15:31:56;21.70;1.00
14924;DHT22;7554;43.600;1.480;2023-05-17T15:34:24;21.80;1.00
14924;DHT22;7554;43.600;1.480;2023-05-17T15:36:54;22.00;1.00
14924;DHT22;7554;43.600;1.480;2023-05-17T15:39:23;22.00;1.00
14924;DHT22;7554;43.600;1.480;2023-05-17T15:41:52;22.00;1.00
14924;DHT22;7554;43.600;1.480;2023-05-17T15:44:19;21.70;1.00
14924;DHT22;7554;43.600;1.480;2023-05-17T15:46:48;21.50;1.00
14924;DHT22;7554;43.600;1.480;2023-05-17T15:49:15;21.80;1.00
14924;DHT22;7554;43.600;1.480;2023-05-17T15:51:43;21.90;1.00
14924;DHT22;7554;43.600;1.480;2023-05-17T15:54:11;21.50;1.00
14924;DHT22;7554;43.600;1.480;2023-05-17T15:56:39;21.40;1.00
14924;DHT22;7554;43.600;1.480;2023-05-17T15:59:08;21.30;1.00
14924;DHT22;7554;43.600;1.480;2023-05-17T16:01:35;21.20;1.00
14924;DHT22;7554;43.600;1.480;2023-05-17T16:04:03;21.10;1.00
14924;DHT22;7554;43.600;1.480;2023-05-17T16:06:30;21.10;1.00
14924;DHT22;7554;43.600;1.480;2023-05-17T16:09:00;21.10;1.00
14924;DHT22;7554;43.600;1.480;2023-05-17T16:11:28;20.90;1.00